Aérodrome :
LOGIN :

S'inscrire | Disclaimer

   EN    FR    IT 

 










Légende :    VFR   VFR Marginal   IFR   IFR Intensif   IFR Très Intensif
Visi : 
Plafond : 
>= 8 km
>= 3000ft
5 à 8 km
1000 à 3000 ft
1500m à 5 km
500 à 1000 ft
800 à 1500m
200 à 500 ft
< 800m
< 200 ft
Symboles :   Orages  Brouillard  Fortes neiges  Fortes précipitations  Vent > 20 kt
SIGMETs :   Divers  Orages  Givrage  Turbulence  Onde Orograph.  Cendres Volcan.






- Altitude de l'aérodrome : 13 ft
- Code IATA : OST


EBOS - Oostend bruges Int.

DERNIER METAR :
  • 270850Z VRB01KT 4500 BR FEW028 03/01 Q1041 BECMG 9999

METARs EXPIRÉS :
  • 270820Z 00000KT 1500 BR FEW028 00/M01 Q1041 BECMG 6000
  • 270750Z 00000KT 0700 R08/1100U R26/0650U FZFG FEW028 M01/M02 Q1041 BECMG 2000 BR
  • 270720Z 12001KT 0700 R08/0550N R26/0650N FZFG NSC M02/M03 Q1041 TEMPO 2000 BR
  • 270650Z 13002KT 0400 R08/0350N R26/1800N FZFG NSC M01/M03 Q1040 TEMPO 2000 BR
  • 270620Z 00000KT 0400 R08/1000U R26/0450N FZFG NSC M01/M02 Q1040 TEMPO 2000 BR

TAF TAF EBOS
Valide du 27 à 06h jusqu'au 28 à 12h UTC


270510Z 2706/2812 05005KT 2500 BR NSC
TEMPO 2706/2710 0300 BCFG
BECMG 2710/2712 7000 NSW



MET'MAP, la Météo Aéronautique d'un coup d'oeil ! - Copyright ORBIFLY Décembre 2007 - Disclaimer

ORBIFLY MET'MAP TEAM :

Programmation & Développement : Alexandra Zaïnal
Sur une idée originale de : Baudouin d'Aumeries
Assistance à la programmation : Marc-Olivier Méhu
Soutien technique & logistique : Manuel Goepfert

Contact : metmap@orbifly.com




SOURCES & CREDITS :

   NOAA